Time;durP1;ratioP1;P1;durP2;ratioP2;P2;SDS_P1;SDS_P2;PMS_P1;PMS_P2;Temp;Humidity;BMP_temperature;BMP_pressure;BME280_temperature;BME280_humidity;BME280_pressure;Samples;Min_cycle;Max_cycle;Signal;HPM_P1;HPM_P2
2021/08/20 00:01:42;;;;;;;14.25;6.88;;;15.20;99.90;;;;;;5043097;28;20030;-75
2021/08/20 00:04:08;;;;;;;12.00;7.30;;;15.10;99.90;;;;;;5051071;28;20052;-75
2021/08/20 00:06:34;;;;;;;11.35;6.97;;;15.10;99.90;;;;;;5062458;28;20043;-76
2021/08/20 00:09:01;;;;;;;8.48;6.38;;;15.10;99.90;;;;;;5065022;28;20041;-76
2021/08/20 00:11:27;;;;;;;13.23;7.70;;;15.00;99.90;;;;;;5042503;28;20034;-76
2021/08/20 00:13:53;;;;;;;10.23;7.30;;;15.00;99.90;;;;;;5038991;28;20043;-76
2021/08/20 00:16:19;;;;;;;12.45;8.00;;;15.00;99.90;;;;;;5048578;28;20037;-76
2021/08/20 00:18:45;;;;;;;8.82;7.18;;;15.00;99.90;;;;;;5050457;28;20044;-76
2021/08/20 00:21:11;;;;;;;16.13;7.75;;;15.00;99.90;;;;;;5052943;28;20033;-77
2021/08/20 00:23:37;;;;;;;14.18;8.07;;;14.90;99.90;;;;;;5047055;28;20422;-77
2021/08/20 00:26:03;;;;;;;12.57;7.43;;;14.90;99.90;;;;;;5049854;28;20154;-77
2021/08/20 00:28:29;;;;;;;13.52;7.78;;;15.00;99.90;;;;;;5062458;28;20057;-76
2021/08/20 00:30:55;;;;;;;14.63;8.77;;;15.00;99.90;;;;;;5049043;28;20040;-76
2021/08/20 00:33:21;;;;;;;16.50;9.30;;;15.00;99.90;;;;;;5044549;28;20044;-76
2021/08/20 00:35:46;;;;;;;21.00;8.70;;;15.00;99.90;;;;;;5037618;28;20533;-76
2021/08/20 00:38:12;;;;;;;12.48;9.15;;;15.00;99.90;;;;;;5062978;28;20048;-76
2021/08/20 00:40:39;;;;;;;15.85;9.80;;;15.00;99.90;;;;;;5047386;28;20373;-76
2021/08/20 00:43:09;;;;;;;19.30;9.57;;;14.90;99.90;;;;;;5059479;28;20303;-77
2021/08/20 00:45:36;;;;;;;16.48;10.82;;;14.90;99.90;;;;;;5067372;28;20067;-77
2021/08/20 00:48:02;;;;;;;19.35;10.80;;;14.90;99.90;;;;;;5067082;28;20141;-77
2021/08/20 00:50:28;;;;;;;18.27;10.77;;;14.80;99.90;;;;;;5068848;28;20040;-77
2021/08/20 00:52:54;;;;;;;22.27;11.20;;;14.80;99.90;;;;;;5047749;28;20169;-77
2021/08/20 00:55:23;;;;;;;16.40;11.13;;;14.80;99.90;;;;;;5040199;28;20045;-77
2021/08/20 00:57:51;;;;;;;20.63;11.00;;;14.80;99.90;;;;;;5034323;28;21136;-77
2021/08/20 01:00:17;;;;;;;18.98;11.00;;;14.80;99.90;;;;;;5058304;28;20072;-77
2021/08/20 01:02:44;;;;;;;19.50;11.88;;;14.90;99.90;;;;;;5034554;28;20033;-76
2021/08/20 01:05:12;;;;;;;21.42;11.68;;;14.90;99.90;;;;;;5046258;28;20048;-77
2021/08/20 01:07:38;;;;;;;16.08;11.50;;;14.90;99.90;;;;;;5046957;28;20068;-77
2021/08/20 01:10:05;;;;;;;17.92;11.10;;;14.80;99.90;;;;;;5053310;28;20078;-77
2021/08/20 01:12:31;;;;;;;17.70;11.18;;;14.90;99.90;;;;;;5048873;28;20182;-76
2021/08/20 01:14:56;;;;;;;19.60;11.73;;;14.90;99.90;;;;;;5053398;28;20028;-77
2021/08/20 01:17:22;;;;;;;19.35;12.40;;;14.80;99.90;;;;;;5037786;28;20068;-77
2021/08/20 01:19:48;;;;;;;21.17;11.98;;;14.90;99.90;;;;;;5055220;28;20060;-77
2021/08/20 01:22:14;;;;;;;18.83;12.07;;;14.80;99.90;;;;;;5050503;28;20110;-77
2021/08/20 01:24:44;;;;;;;22.40;12.60;;;14.80;99.90;;;;;;5064353;28;20033;-77
2021/08/20 01:27:10;;;;;;;19.00;12.38;;;14.80;99.90;;;;;;5055919;28;20459;-77
2021/08/20 01:29:36;;;;;;;27.08;14.05;;;14.80;99.90;;;;;;5052226;28;20113;-77
2021/08/20 01:32:02;;;;;;;19.85;13.23;;;14.80;99.90;;;;;;5053449;28;20473;-77
2021/08/20 01:34:28;;;;;;;26.20;14.93;;;14.80;99.90;;;;;;5061991;28;20045;-77
2021/08/20 01:36:54;;;;;;;28.75;15.20;;;14.80;99.90;;;;;;5043917;28;20106;-77
2021/08/20 01:39:20;;;;;;;23.00;14.02;;;14.80;99.90;;;;;;5048795;28;20029;-77
2021/08/20 01:41:45;;;;;;;23.63;13.80;;;14.80;99.90;;;;;;5049545;28;20052;-78
2021/08/20 01:44:11;;;;;;;23.52;14.70;;;14.70;99.90;;;;;;5062151;28;20041;-77
2021/08/20 01:46:37;;;;;;;27.13;16.05;;;14.70;99.90;;;;;;5046228;28;20040;-77
2021/08/20 01:49:03;;;;;;;33.13;17.70;;;14.70;99.90;;;;;;5045946;28;20084;-77
2021/08/20 01:51:31;;;;;;;35.42;17.08;;;14.70;99.90;;;;;;5051537;28;20040;-77
2021/08/20 01:54:00;;;;;;;37.92;19.48;;;14.70;99.90;;;;;;5049016;28;20095;-77
2021/08/20 01:56:28;;;;;;;35.05;19.65;;;14.70;99.90;;;;;;5066948;28;20040;-77
2021/08/20 01:58:58;;;;;;;42.83;22.63;;;14.80;99.90;;;;;;5045076;28;20046;-77
2021/08/20 02:01:25;;;;;;;40.70;22.88;;;14.70;99.90;;;;;;5045379;28;20502;-76
2021/08/20 02:03:51;;;;;;;48.15;24.52;;;14.80;99.90;;;;;;5053212;28;20120;-77
2021/08/20 02:06:17;;;;;;;40.85;22.10;;;14.80;99.90;;;;;;5052328;28;20051;-76
2021/08/20 02:08:43;;;;;;;35.45;20.80;;;14.80;99.90;;;;;;5067197;28;20045;-76
2021/08/20 02:11:09;;;;;;;37.42;22.10;;;14.80;99.90;;;;;;5065385;28;20440;-77
2021/08/20 02:13:35;;;;;;;35.00;21.42;;;14.80;99.90;;;;;;5054045;28;20044;-77
2021/08/20 02:16:01;;;;;;;35.72;22.38;;;14.80;99.90;;;;;;5051956;28;20043;-77
2021/08/20 02:18:27;;;;;;;45.53;22.55;;;14.80;99.90;;;;;;5053561;28;20041;-77
2021/08/20 02:20:52;;;;;;;47.08;24.40;;;14.80;99.90;;;;;;5045375;28;20038;-77
2021/08/20 02:23:18;;;;;;;42.67;23.60;;;14.70;99.90;;;;;;5057387;28;20094;-77
2021/08/20 02:25:44;;;;;;;43.33;22.70;;;14.80;99.90;;;;;;5056336;28;20042;-77
2021/08/20 02:28:10;;;;;;;46.03;23.92;;;14.70;99.90;;;;;;5065344;28;20445;-77
2021/08/20 02:30:36;;;;;;;45.72;24.13;;;14.60;99.90;;;;;;5048078;28;20492;-77
2021/08/20 02:33:02;;;;;;;47.17;25.23;;;14.60;99.90;;;;;;5048882;28;20178;-77
2021/08/20 02:35:28;;;;;;;46.83;24.27;;;14.60;99.90;;;;;;5052200;28;20049;-78
2021/08/20 02:37:55;;;;;;;46.70;24.88;;;14.60;99.90;;;;;;5033968;28;20071;-77
2021/08/20 02:40:21;;;;;;;40.45;24.55;;;14.60;99.90;;;;;;5055924;28;20449;-78
2021/08/20 02:42:47;;;;;;;44.03;24.90;;;14.50;99.90;;;;;;5046914;28;20076;-78
2021/08/20 02:45:13;;;;;;;46.60;24.30;;;14.50;99.90;;;;;;5040792;28;20029;-78
2021/08/20 02:47:39;;;;;;;51.75;26.83;;;14.50;99.90;;;;;;5033001;28;20427;-78
2021/08/20 02:50:06;;;;;;;46.42;25.67;;;14.50;99.90;;;;;;5039514;28;20029;-78
2021/08/20 02:52:31;;;;;;;54.97;27.05;;;14.50;99.90;;;;;;5058772;28;20103;-78
2021/08/20 02:54:57;;;;;;;50.40;27.17;;;14.40;99.90;;;;;;5055582;28;20065;-78
2021/08/20 02:57:27;;;;;;;54.58;28.23;;;14.50;99.90;;;;;;5062434;28;20110;-78
2021/08/20 02:59:57;;;;;;;57.88;28.63;;;14.50;99.90;;;;;;5039538;28;20041;-78
2021/08/20 03:02:23;;;;;;;52.15;28.60;;;14.40;99.90;;;;;;5048830;28;20041;-78
2021/08/20 03:04:49;;;;;;;47.30;27.25;;;14.40;99.90;;;;;;5044851;28;20049;-78
2021/08/20 03:07:16;;;;;;;58.42;29.02;;;14.40;99.90;;;;;;5067167;28;20057;-78
2021/08/20 03:09:42;;;;;;;56.80;30.33;;;14.40;99.90;;;;;;5065035;28;20128;-78
2021/08/20 03:12:08;;;;;;;54.88;28.55;;;14.40;99.90;;;;;;5052056;28;20131;-77
2021/08/20 03:14:34;;;;;;;60.45;30.33;;;14.30;99.90;;;;;;5044262;28;20037;-78
2021/08/20 03:17:00;;;;;;;50.35;29.05;;;14.30;99.90;;;;;;5044875;28;20384;-78
2021/08/20 03:19:26;;;;;;;53.75;29.38;;;14.30;99.90;;;;;;5042623;28;20047;-78
2021/08/20 03:21:52;;;;;;;56.83;30.65;;;14.40;99.90;;;;;;5051688;28;20033;-78
2021/08/20 03:24:18;;;;;;;67.38;31.92;;;14.30;99.90;;;;;;5047749;28;20087;-78
2021/08/20 03:26:43;;;;;;;58.00;29.90;;;14.30;99.90;;;;;;5051337;28;20091;-78
2021/08/20 03:29:09;;;;;;;53.53;30.27;;;14.30;99.90;;;;;;5059282;28;20037;-78
2021/08/20 03:31:35;;;;;;;57.30;31.05;;;14.30;99.90;;;;;;5054314;28;20057;-78
2021/08/20 03:34:01;;;;;;;61.78;32.25;;;14.30;99.90;;;;;;5042678;28;20399;-78
2021/08/20 03:36:27;;;;;;;66.88;32.08;;;14.30;99.90;;;;;;5062653;28;20675;-78
2021/08/20 03:38:53;;;;;;;65.97;31.52;;;14.30;99.90;;;;;;5048142;28;20132;-78
2021/08/20 03:41:20;;;;;;;60.13;31.92;;;14.30;99.90;;;;;;5051024;28;20119;-78
2021/08/20 03:43:47;;;;;;;75.55;33.58;;;14.30;99.90;;;;;;5048731;28;20033;-78
2021/08/20 03:46:14;;;;;;;64.63;32.40;;;14.30;99.90;;;;;;5036273;28;20099;-78
2021/08/20 03:48:42;;;;;;;57.47;31.00;;;14.30;99.90;;;;;;5034780;28;20041;-78
2021/08/20 03:51:08;;;;;;;63.17;32.45;;;14.30;99.90;;;;;;5055232;28;20136;-78
2021/08/20 03:53:34;;;;;;;73.35;34.33;;;14.30;99.90;;;;;;5051612;28;20112;-78
2021/08/20 03:56:00;;;;;;;66.85;33.90;;;14.30;99.90;;;;;;5042024;28;20487;-78
2021/08/20 03:58:26;;;;;;;64.93;32.35;;;14.20;99.90;;;;;;5045424;28;20077;-78
2021/08/20 04:00:52;;;;;;;60.25;33.45;;;14.30;99.90;;;;;;5045205;28;20094;-78
2021/08/20 04:03:19;;;;;;;68.43;33.85;;;14.30;99.90;;;;;;5050565;28;20033;-78
2021/08/20 04:05:46;;;;;;;77.30;34.55;;;14.30;99.90;;;;;;5047601;28;20061;-78
2021/08/20 04:08:13;;;;;;;72.90;33.17;;;14.30;99.90;;;;;;5048217;28;20052;-79
2021/08/20 04:10:42;;;;;;;65.53;33.65;;;14.30;99.90;;;;;;5066715;28;20036;-78
2021/08/20 04:13:12;;;;;;;72.85;35.17;;;14.30;99.90;;;;;;5052171;28;20032;-78
2021/08/20 04:15:39;;;;;;;75.35;34.70;;;14.30;99.90;;;;;;5066212;28;20536;-77
2021/08/20 04:18:05;;;;;;;68.65;33.17;;;14.30;99.90;;;;;;5046659;28;20053;-79
2021/08/20 04:20:31;;;;;;;58.25;32.22;;;14.30;99.90;;;;;;5049534;28;20106;-77
2021/08/20 04:22:59;;;;;;;80.18;35.42;;;14.30;99.90;;;;;;5065499;28;20476;-77
2021/08/20 04:25:25;;;;;;;77.55;35.58;;;14.30;99.90;;;;;;5070935;28;20036;-78
2021/08/20 04:27:51;;;;;;;68.63;34.42;;;14.30;99.90;;;;;;5052165;28;20039;-77
2021/08/20 04:30:22;;;;;;;68.57;34.20;;;14.20;99.90;;;;;;5049138;28;20037;-77
2021/08/20 04:32:48;;;;;;;75.70;36.10;;;14.20;99.90;;;;;;5063443;28;20520;-77
2021/08/20 04:35:14;;;;;;;79.45;35.83;;;14.20;99.90;;;;;;5048313;28;20153;-77
2021/08/20 04:37:40;;;;;;;66.90;34.55;;;14.20;99.90;;;;;;5045901;28;20391;-77
2021/08/20 04:40:09;;;;;;;77.60;34.88;;;14.30;99.90;;;;;;5061625;28;20411;-76
2021/08/20 04:42:36;;;;;;;66.38;35.13;;;14.20;99.90;;;;;;5058686;28;20033;-77
2021/08/20 04:45:03;;;;;;;77.97;36.35;;;14.20;99.90;;;;;;5050363;28;20084;-77
2021/08/20 04:47:28;;;;;;;68.75;34.92;;;14.20;99.90;;;;;;5045552;28;20037;-77
2021/08/20 04:49:54;;;;;;;65.97;34.72;;;14.10;99.90;;;;;;5060562;28;20658;-77
2021/08/20 04:52:20;;;;;;;34.42;20.45;;;14.30;99.90;;;;;;5064060;28;20498;-77
2021/08/20 04:54:46;;;;;;;27.83;18.17;;;14.30;99.90;;;;;;5064906;28;20049;-77
2021/08/20 04:57:12;;;;;;;29.13;19.40;;;14.50;99.90;;;;;;5050591;28;20490;-77
2021/08/20 04:59:48;;;;;;;34.80;17.27;;;14.80;99.90;;;;;;5041809;28;20111;-79
2021/08/20 05:02:14;;;;;;;23.60;16.05;;;15.00;99.90;;;;;;5052181;28;20056;-78
2021/08/20 05:04:40;;;;;;;27.33;14.32;;;15.10;99.90;;;;;;5047154;28;20674;-78
2021/08/20 05:07:06;;;;;;;22.85;15.00;;;15.40;99.90;;;;;;5038277;28;20133;-78
2021/08/20 05:09:33;;;;;;;26.60;16.05;;;15.50;99.90;;;;;;5049737;28;20059;-80
2021/08/20 05:12:02;;;;;;;22.98;15.43;;;15.60;99.90;;;;;;5056050;28;20035;-80
2021/08/20 05:14:29;;;;;;;26.48;16.00;;;15.80;99.90;;;;;;5048717;28;20456;-79
2021/08/20 05:16:55;;;;;;;20.73;15.52;;;15.90;99.90;;;;;;5048738;28;20495;-80
2021/08/20 05:19:21;;;;;;;27.73;18.20;;;16.00;99.90;;;;;;5045100;28;20047;-79
2021/08/20 05:21:47;;;;;;;29.55;18.40;;;16.10;99.90;;;;;;5038328;28;20034;-79
2021/08/20 05:24:12;;;;;;;30.63;18.08;;;16.10;99.90;;;;;;5064023;28;20040;-79
2021/08/20 05:26:38;;;;;;;27.63;17.25;;;16.10;99.90;;;;;;5034689;28;20038;-77
2021/08/20 05:29:04;;;;;;;30.70;19.65;;;16.30;99.90;;;;;;5056318;28;20762;-80
2021/08/20 05:31:30;;;;;;;29.73;16.27;;;16.20;99.90;;;;;;5068434;28;20102;-81
2021/08/20 05:33:56;;;;;;;25.05;16.00;;;16.30;99.90;;;;;;5053661;28;20337;-79
2021/08/20 05:36:22;;;;;;;28.80;16.17;;;16.50;99.90;;;;;;5050675;28;20057;-79
2021/08/20 05:38:48;;;;;;;31.38;20.48;;;16.50;99.90;;;;;;5052592;28;20484;-78
2021/08/20 05:41:13;;;;;;;32.85;20.02;;;16.50;99.90;;;;;;5046384;28;20033;-78
2021/08/20 05:43:40;;;;;;;26.38;18.48;;;16.50;99.90;;;;;;5039931;28;20041;-81
2021/08/20 05:46:05;;;;;;;30.25;17.85;;;16.50;99.90;;;;;;5044422;28;20495;-78
2021/08/20 05:48:31;;;;;;;28.95;17.85;;;16.40;99.90;;;;;;5042233;28;20092;-78
2021/08/20 05:50:57;;;;;;;33.70;20.55;;;16.40;99.90;;;;;;5046945;28;20353;-78
2021/08/20 05:53:23;;;;;;;30.40;19.42;;;16.40;99.90;;;;;;5043430;28;20123;-78
2021/08/20 05:55:51;;;;;;;32.88;23.58;;;16.30;99.90;;;;;;5045053;28;20052;-77
2021/08/20 05:58:17;;;;;;;26.00;17.52;;;16.40;99.90;;;;;;5066263;28;20065;-78
2021/08/20 06:00:43;;;;;;;25.33;16.75;;;16.40;99.90;;;;;;5048278;28;20078;-77
2021/08/20 06:03:09;;;;;;;27.85;16.75;;;16.50;99.90;;;;;;5051396;28;20037;-78
2021/08/20 06:05:34;;;;;;;33.05;20.42;;;16.60;99.90;;;;;;5048653;28;20409;-78
2021/08/20 06:08:01;;;;;;;26.27;17.52;;;16.60;99.90;;;;;;5061587;28;20471;-78
2021/08/20 06:10:28;;;;;;;30.42;19.45;;;16.60;99.90;;;;;;5042450;28;20038;-79
2021/08/20 06:12:54;;;;;;;32.15;20.80;;;16.60;99.90;;;;;;5046528;28;21585;-78
2021/08/20 06:15:20;;;;;;;38.53;25.33;;;16.60;99.90;;;;;;5044121;28;20469;-79
2021/08/20 06:17:49;;;;;;;45.22;24.65;;;16.70;99.90;;;;;;5008150;28;20045;-79
2021/08/20 06:20:17;;;;;;;39.88;24.20;;;16.40;99.90;;;;;;5042455;28;20041;-80
2021/08/20 06:22:43;;;;;;;32.78;17.20;;;16.50;99.90;;;;;;5041852;28;20072;-80
2021/08/20 06:25:10;;;;;;;35.38;24.15;;;16.50;99.90;;;;;;5038633;28;20061;-80
2021/08/20 06:27:41;;;;;;;24.60;17.40;;;16.50;99.90;;;;;;5043101;28;20112;-77
2021/08/20 06:30:10;;;;;;;32.97;21.10;;;16.50;99.90;;;;;;5053139;28;20120;-78
2021/08/20 06:32:36;;;;;;;25.50;17.42;;;16.70;99.90;;;;;;5059240;28;20080;-77
2021/08/20 06:35:02;;;;;;;28.75;17.83;;;16.80;99.90;;;;;;5037508;28;20076;-78
2021/08/20 06:37:28;;;;;;;26.83;16.98;;;17.00;99.90;;;;;;5047882;28;20148;-77
2021/08/20 06:39:54;;;;;;;25.55;16.00;;;17.30;99.90;;;;;;5056150;28;20562;-77
2021/08/20 06:42:21;;;;;;;27.35;16.65;;;17.50;99.90;;;;;;5053888;28;20086;-79
2021/08/20 06:44:48;;;;;;;32.10;22.65;;;17.70;99.90;;;;;;5067202;28;20127;-81
2021/08/20 06:47:14;;;;;;;30.77;20.80;;;17.70;99.90;;;;;;5038767;28;20040;-78
2021/08/20 06:49:40;;;;;;;24.90;17.55;;;17.90;99.90;;;;;;5046460;28;20048;-79
2021/08/20 06:52:08;;;;;;;34.22;22.40;;;18.00;99.90;;;;;;5052550;28;20158;-78
2021/08/20 06:54:34;;;;;;;36.45;22.92;;;18.00;99.90;;;;;;5037169;28;20033;-79
2021/08/20 06:57:00;;;;;;;23.92;17.05;;;17.90;99.90;;;;;;5059345;28;20029;-78
2021/08/20 06:59:26;;;;;;;28.52;17.25;;;17.90;99.90;;;;;;5051661;28;20095;-77
2021/08/20 07:01:51;;;;;;;27.80;17.77;;;17.90;99.90;;;;;;5066623;28;20115;-78
2021/08/20 07:04:17;;;;;;;23.15;16.05;;;17.80;99.90;;;;;;5044457;28;20060;-79
2021/08/20 07:06:43;;;;;;;29.52;18.15;;;17.80;99.90;;;;;;5050996;28;20052;-80
2021/08/20 07:09:09;;;;;;;25.50;15.57;;;17.80;99.90;;;;;;5041836;28;20128;-77
2021/08/20 07:11:39;;;;;;;31.58;20.60;;;18.00;99.90;;;;;;5063023;28;20053;-80
2021/08/20 07:14:04;;;;;;;24.90;15.02;;;18.10;99.90;;;;;;5035207;28;20037;-82
2021/08/20 07:16:30;;;;;;;24.25;14.25;;;18.20;99.90;;;;;;5033017;28;20388;-79
2021/08/20 07:18:56;;;;;;;21.80;16.52;;;18.40;99.90;;;;;;5063690;28;20472;-80
2021/08/20 07:21:22;;;;;;;28.58;19.40;;;18.50;99.90;;;;;;5063876;28;20072;-80
2021/08/20 07:23:48;;;;;;;34.67;21.15;;;18.50;99.90;;;;;;5036267;28;20461;-78
2021/08/20 07:26:15;;;;;;;29.20;19.42;;;18.60;99.90;;;;;;5054830;28;20048;-81
2021/08/20 07:28:41;;;;;;;32.92;21.15;;;18.60;99.90;;;;;;5053621;28;20033;-79
2021/08/20 07:31:07;;;;;;;27.50;19.35;;;18.50;99.90;;;;;;5049552;28;20055;-79
2021/08/20 07:33:32;;;;;;;36.60;26.20;;;18.50;99.90;;;;;;5032642;28;20037;-81
2021/08/20 07:35:59;;;;;;;40.58;26.23;;;18.40;99.90;;;;;;5052812;28;20388;-78
2021/08/20 07:38:25;;;;;;;41.80;23.15;;;18.40;99.90;;;;;;5061758;28;20041;-78
2021/08/20 07:40:51;;;;;;;33.58;22.27;;;18.40;99.90;;;;;;5043414;28;20048;-78
2021/08/20 07:43:17;;;;;;;32.63;23.55;;;18.50;99.90;;;;;;5046225;28;20045;-79
2021/08/20 07:45:45;;;;;;;28.10;19.88;;;18.60;99.90;;;;;;5052320;28;20074;-78
2021/08/20 07:48:12;;;;;;;24.00;16.83;;;18.70;99.90;;;;;;5052141;28;20037;-80
2021/08/20 07:50:40;;;;;;;33.05;23.40;;;18.90;99.90;;;;;;5046941;28;20496;-79
2021/08/20 07:53:08;;;;;;;35.35;24.95;;;19.00;99.90;;;;;;5051245;28;20037;-77
2021/08/20 07:55:34;;;;;;;33.85;25.15;;;19.00;99.90;;;;;;5068299;28;20050;-79
2021/08/20 07:58:00;;;;;;;36.03;25.23;;;18.90;99.90;;;;;;5058488;28;20377;-79
2021/08/20 08:00:29;;;;;;;26.20;19.88;;;18.80;99.90;;;;;;5051953;28;20503;-79
2021/08/20 08:02:55;;;;;;;42.55;26.55;;;18.80;99.90;;;;;;5057043;28;20047;-79
2021/08/20 08:05:22;;;;;;;43.17;28.00;;;18.90;99.90;;;;;;5034299;28;20135;-79
2021/08/20 08:07:50;;;;;;;41.67;27.90;;;18.90;99.90;;;;;;5046960;28;20384;-79
2021/08/20 08:10:17;;;;;;;30.70;22.25;;;18.90;99.90;;;;;;5042672;28;20106;-80
2021/08/20 08:12:44;;;;;;;37.30;26.25;;;18.90;99.90;;;;;;5043071;28;20130;-78
2021/08/20 08:15:11;;;;;;;34.75;23.27;;;19.00;99.90;;;;;;5043953;28;20448;-77
2021/08/20 08:17:38;;;;;;;28.13;19.90;;;18.80;99.90;;;;;;5040791;28;20040;-78
2021/08/20 08:20:06;;;;;;;34.53;24.70;;;19.00;99.90;;;;;;5045108;28;20033;-77
2021/08/20 08:22:31;;;;;;;34.88;24.63;;;19.10;99.90;;;;;;5059222;28;20073;-77
2021/08/20 08:24:57;;;;;;;32.15;22.45;;;19.30;99.90;;;;;;5047999;28;20832;-76
2021/08/20 08:27:23;;;;;;;29.50;22.08;;;19.40;99.90;;;;;;5045770;28;20480;-77
2021/08/20 08:29:49;;;;;;;32.28;21.90;;;19.60;99.90;;;;;;5051344;28;20037;-77
2021/08/20 08:32:15;;;;;;;27.63;17.88;;;19.70;99.90;;;;;;5051375;28;20045;-78
2021/08/20 08:34:40;;;;;;;33.55;23.83;;;19.70;99.90;;;;;;5055114;28;20045;-79
2021/08/20 08:37:06;;;;;;;30.52;22.77;;;19.90;99.90;;;;;;5042149;28;20060;-79
2021/08/20 08:39:33;;;;;;;29.30;21.50;;;20.00;99.90;;;;;;5030543;28;20457;-80
2021/08/20 08:42:05;;;;;;;32.78;23.92;;;20.00;99.90;;;;;;5062504;28;20037;-83
2021/08/20 08:44:41;;;;;;;33.78;23.27;;;20.00;99.90;;;;;;5045817;28;20120;-79
2021/08/20 08:47:07;;;;;;;28.77;20.38;;;19.90;99.90;;;;;;5043813;28;20543;-79
2021/08/20 08:49:34;;;;;;;33.40;23.38;;;19.90;99.90;;;;;;5040506;28;20456;-79
2021/08/20 08:52:06;;;;;;;32.83;23.27;;;19.80;99.90;;;;;;5049533;28;20487;-81
2021/08/20 08:54:32;;;;;;;32.50;24.08;;;19.60;99.90;;;;;;5056313;28;20107;-77
2021/08/20 08:57:04;;;;;;;36.65;24.98;;;19.50;99.90;;;;;;5053338;28;20058;-78
2021/08/20 08:59:31;;;;;;;33.88;24.55;;;19.50;99.90;;;;;;5058062;28;20075;-79
2021/08/20 09:01:56;;;;;;;30.42;23.67;;;19.40;99.90;;;;;;5044655;28;20456;-78
2021/08/20 09:04:22;;;;;;;33.25;24.73;;;19.30;99.90;;;;;;5045011;28;20087;-75
2021/08/20 09:06:54;;;;;;;36.30;23.65;;;19.30;99.90;;;;;;5047348;28;20040;-75
2021/08/20 09:09:22;;;;;;;29.98;23.77;;;19.20;99.90;;;;;;5037791;28;20041;-77
2021/08/20 09:11:55;;;;;;;24.38;20.80;;;19.30;99.90;;;;;;5042375;28;20044;-77
2021/08/20 09:14:30;;;;;;;30.20;24.77;;;19.50;99.90;;;;;;5054064;28;20053;-77
2021/08/20 09:16:55;;;;;;;30.60;23.98;;;19.60;99.90;;;;;;5045013;28;20086;-76
2021/08/20 09:19:24;;;;;;;24.75;19.52;;;19.70;99.90;;;;;;5047555;28;20488;-77
2021/08/20 09:21:58;;;;;;;27.25;21.27;;;19.80;99.90;;;;;;5045789;28;20040;-76
2021/08/20 09:24:37;;;;;;;27.35;19.27;;;19.90;99.90;;;;;;5047344;28;20042;-79
2021/08/20 09:27:15;;;;;;;28.88;22.42;;;19.90;99.90;;;;;;5045151;28;20162;-76
2021/08/20 09:30:10;;;;;;;29.55;21.98;;;19.90;99.90;;;;;;5042773;28;20033;-76
2021/08/20 09:32:45;;;;;;;26.02;19.45;;;19.90;99.90;;;;;;5048442;28;20041;-75
2021/08/20 09:35:12;;;;;;;24.92;17.05;;;19.90;99.90;;;;;;5065865;28;20124;-75
2021/08/20 09:37:38;;;;;;;25.60;18.67;;;20.10;99.90;;;;;;5067609;28;20040;-75
2021/08/20 09:40:09;;;;;;;26.98;19.77;;;20.30;99.90;;;;;;5047667;28;20091;-77
2021/08/20 09:42:35;;;;;;;29.52;20.85;;;20.50;99.90;;;;;;5065820;28;20100;-76
2021/08/20 09:45:13;;;;;;;29.45;19.73;;;20.50;99.90;;;;;;5049692;28;20048;-77
2021/08/20 09:47:47;;;;;;;29.92;18.08;;;20.40;99.90;;;;;;5051558;28;20040;-76
2021/08/20 09:50:13;;;;;;;;;;;20.60;99.90;;;;;;5049323;28;20037;-77
2021/08/20 09:52:39;;;;;;;25.88;20.15;;;20.60;99.90;;;;;;5050569;28;19959;-77
2021/08/20 09:55:05;;;;;;;25.60;18.02;;;20.60;99.90;;;;;;5048308;28;20504;-76
2021/08/20 09:57:35;;;;;;;25.98;19.38;;;20.80;99.90;;;;;;5066405;28;20502;-75
2021/08/20 10:00:01;;;;;;;24.35;16.50;;;20.80;99.90;;;;;;5049249;28;20396;-76
2021/08/20 10:02:28;;;;;;;30.55;19.15;;;20.80;99.90;;;;;;5057225;28;20033;-77
2021/08/20 10:04:56;;;;;;;27.55;19.55;;;21.10;99.90;;;;;;5070312;28;20088;-77
2021/08/20 10:07:28;;;;;;;26.75;18.65;;;21.00;99.90;;;;;;5069585;28;20109;-77
2021/08/20 10:09:55;;;;;;;25.33;18.23;;;21.20;99.90;;;;;;5046963;28;20053;-77
2021/08/20 10:12:25;;;;;;;34.85;19.45;;;21.50;99.90;;;;;;5062793;28;20053;-77
2021/08/20 10:14:53;;;;;;;25.27;17.90;;;21.70;99.90;;;;;;5052194;28;20045;-77
2021/08/20 10:17:19;;;;;;;26.85;19.67;;;21.70;99.90;;;;;;5053706;28;20059;-77
2021/08/20 10:19:50;;;;;;;28.08;18.92;;;22.00;99.90;;;;;;5054678;28;20457;-77
2021/08/20 10:22:16;;;;;;;26.27;19.27;;;22.20;99.90;;;;;;5058581;28;20032;-77
2021/08/20 10:24:42;;;;;;;22.08;14.63;;;22.10;99.90;;;;;;5088051;28;20453;-77
2021/08/20 10:27:10;;;;;;;28.15;18.52;;;22.20;99.90;;;;;;5068041;28;20399;-77
2021/08/20 10:29:43;;;;;;;28.95;18.27;;;22.40;99.90;;;;;;5068638;28;20064;-77
2021/08/20 10:32:10;;;;;;;24.83;17.73;;;22.70;99.90;;;;;;5058730;28;20103;-77
2021/08/20 10:34:39;;;;;;;28.67;18.60;;;22.90;99.90;;;;;;5033593;28;20038;-77
2021/08/20 10:37:10;;;;;;;27.40;18.48;;;22.50;99.90;;;;;;5050380;28;20041;-78
2021/08/20 10:39:40;;;;;;;26.15;17.30;;;22.50;99.90;;;;;;5068982;28;20036;-78
2021/08/20 10:42:12;;;;;;;26.25;17.80;;;22.40;99.90;;;;;;5045097;28;20053;-79
2021/08/20 10:44:40;;;;;;;26.00;18.15;;;22.50;99.90;;;;;;5043464;28;20440;-79
2021/08/20 10:47:07;;;;;;;22.55;17.17;;;22.50;99.90;;;;;;5037269;28;20048;-78
2021/08/20 10:49:41;;;;;;;23.30;15.25;;;22.60;99.90;;;;;;5041537;28;20036;-78
2021/08/20 10:52:07;;;;;;;20.20;14.55;;;22.60;99.90;;;;;;5048401;28;20425;-78
2021/08/20 10:54:36;;;;;;;21.63;14.23;;;22.30;99.90;;;;;;5032650;28;20045;-80
2021/08/20 10:57:04;;;;;;;18.60;14.07;;;22.10;99.90;;;;;;5034806;28;20041;-80
2021/08/20 10:59:36;;;;;;;19.23;13.25;;;22.00;99.90;;;;;;5027479;28;20459;-77
2021/08/20 11:02:20;;;;;;;20.00;14.23;;;22.00;99.90;;;;;;5042639;28;20042;-76
2021/08/20 11:05:02;;;;;;;21.58;13.63;;;21.90;99.90;;;;;;5058929;28;20060;-78
2021/08/20 11:07:44;;;;;;;20.95;13.32;;;21.80;99.90;;;;;;5048219;28;20124;-78
2021/08/20 11:10:09;;;;;;;30.80;15.15;;;21.70;99.90;;;;;;5058595;28;20035;-77
2021/08/20 11:12:39;;;;;;;21.75;14.18;;;21.60;99.90;;;;;;5056841;28;20030;-76
2021/08/20 11:15:17;;;;;;;20.23;13.48;;;21.30;99.90;;;;;;5049786;28;20045;-76
2021/08/20 11:17:57;;;;;;;20.38;13.63;;;21.30;99.90;;;;;;5039876;28;20033;-75
2021/08/20 11:20:37;;;;;;;18.30;11.75;;;21.20;99.90;;;;;;5047578;28;20155;-77
2021/08/20 11:25:40;;;;;;;22.83;12.30;;;21.10;99.90;;;;;;5043507;28;20159;-76
2021/08/20 11:28:07;;;;;;;17.38;12.07;;;21.00;99.90;;;;;;5042802;28;20036;-77
2021/08/20 11:30:36;;;;;;;17.90;11.75;;;20.90;99.90;;;;;;5063531;28;20045;-77
2021/08/20 11:33:13;;;;;;;18.48;9.65;;;20.90;99.90;;;;;;5042599;28;20784;-77
2021/08/20 11:35:39;;;;;;;18.98;11.63;;;20.90;99.90;;;;;;5047422;28;20041;-77
2021/08/20 11:38:05;;;;;;;12.73;9.48;;;20.80;99.90;;;;;;5043653;28;20499;-77
2021/08/20 11:40:33;;;;;;;17.38;11.93;;;20.70;99.90;;;;;;5057386;28;20053;-78
2021/08/20 11:43:09;;;;;;;21.83;12.27;;;20.70;99.90;;;;;;5046917;28;20481;-75
2021/08/20 11:45:36;;;;;;;24.52;12.80;;;20.70;99.90;;;;;;5049030;28;20099;-75
2021/08/20 11:48:02;;;;;;;16.58;11.02;;;20.60;99.90;;;;;;5054654;28;20052;-76
2021/08/20 11:50:30;;;;;;;18.27;12.10;;;20.50;99.90;;;;;;5054342;28;20037;-75
2021/08/20 11:52:56;;;;;;;22.42;12.82;;;20.50;99.90;;;;;;5055890;28;20395;-75
2021/08/20 11:55:22;;;;;;;20.33;14.90;;;20.60;99.90;;;;;;5049896;28;20044;-75
2021/08/20 11:57:48;;;;;;;20.42;13.88;;;20.80;99.90;;;;;;5047207;28;20442;-76
2021/08/20 12:00:15;;;;;;;25.90;13.50;;;21.00;99.90;;;;;;5048424;28;20036;-77
2021/08/20 12:02:41;;;;;;;35.20;23.25;;;21.10;99.90;;;;;;5046208;28;20852;-77
2021/08/20 12:05:17;;;;;;;25.98;16.77;;;21.30;99.90;;;;;;5049463;28;20059;-77
2021/08/20 12:07:44;;;;;;;17.58;11.85;;;21.60;99.90;;;;;;5052130;28;20047;-78
2021/08/20 12:10:11;;;;;;;19.88;11.43;;;22.00;99.90;;;;;;5058616;28;20032;-78
2021/08/20 12:12:39;;;;;;;17.73;11.55;;;21.80;99.90;;;;;;5053346;28;20614;-77
2021/08/20 12:15:06;;;;;;;19.10;11.77;;;21.70;99.90;;;;;;5060644;28;20045;-77
2021/08/20 12:17:33;;;;;;;15.13;10.40;;;21.70;99.90;;;;;;5049386;28;20079;-76
2021/08/20 12:20:01;;;;;;;19.02;11.77;;;21.50;99.90;;;;;;5047763;28;20041;-75
2021/08/20 12:22:35;;;;;;;17.55;11.15;;;21.50;99.90;;;;;;5058016;28;20478;-76
2021/08/20 12:25:13;;;;;;;20.30;11.18;;;21.70;99.90;;;;;;5045433;28;20068;-79
2021/08/20 12:27:40;;;;;;;19.67;10.85;;;22.00;99.90;;;;;;5043116;28;20506;-77
2021/08/20 12:30:11;;;;;;;18.92;10.30;;;22.20;99.90;;;;;;5046269;28;20040;-78
2021/08/20 12:32:52;;;;;;;23.38;10.02;;;22.40;99.90;;;;;;5052743;28;20048;-78